sensor_id;sensor_type;location;lat;lon;timestamp;pressure;altitude;pressure_sealevel;temperature;humidity
28428;BME280;15662;49.128;8.520;2023-01-31T00:01:54;101478.13;;;8.76;54.87
28428;BME280;15662;49.128;8.520;2023-01-31T00:04:22;101471.97;;;8.75;54.63
28428;BME280;15662;49.128;8.520;2023-01-31T00:06:50;101472.00;;;8.77;54.81
28428;BME280;15662;49.128;8.520;2023-01-31T00:09:20;101477.28;;;8.78;54.69
28428;BME280;15662;49.128;8.520;2023-01-31T00:11:48;101473.75;;;8.79;54.50
28428;BME280;15662;49.128;8.520;2023-01-31T00:14:19;101471.97;;;8.85;54.76
28428;BME280;15662;49.128;8.520;2023-01-31T00:16:47;101472.88;;;8.84;54.42
28428;BME280;15662;49.128;8.520;2023-01-31T00:19:15;101471.09;;;8.84;54.29
28428;BME280;15662;49.128;8.520;2023-01-31T00:21:43;101476.38;;;8.86;54.93
28428;BME280;15662;49.128;8.520;2023-01-31T00:24:12;101476.38;;;8.86;54.87
28428;BME280;15662;49.128;8.520;2023-01-31T00:26:41;101480.78;;;8.84;54.70
28428;BME280;15662;49.128;8.520;2023-01-31T00:29:09;101486.09;;;8.87;54.52
28428;BME280;15662;49.128;8.520;2023-01-31T00:31:37;101489.59;;;8.89;54.66
28428;BME280;15662;49.128;8.520;2023-01-31T00:34:06;101483.44;;;8.90;54.81
28428;BME280;15662;49.128;8.520;2023-01-31T00:36:34;101488.72;;;8.93;54.84
28428;BME280;15662;49.128;8.520;2023-01-31T00:39:05;101492.25;;;8.92;54.72
28428;BME280;15662;49.128;8.520;2023-01-31T00:41:36;101496.63;;;8.91;54.38
28428;BME280;15662;49.128;8.520;2023-01-31T00:44:06;101488.72;;;8.87;54.61
28428;BME280;15662;49.128;8.520;2023-01-31T00:46:34;101488.72;;;8.90;55.08
28428;BME280;15662;49.128;8.520;2023-01-31T00:49:03;101481.69;;;8.87;54.84
28428;BME280;15662;49.128;8.520;2023-01-31T00:51:31;101471.97;;;8.88;54.52
28428;BME280;15662;49.128;8.520;2023-01-31T00:53:59;101465.78;;;8.86;55.00
28428;BME280;15662;49.128;8.520;2023-01-31T00:56:26;101477.25;;;8.91;54.69
28428;BME280;15662;49.128;8.520;2023-01-31T00:58:54;101475.50;;;8.90;54.63
28428;BME280;15662;49.128;8.520;2023-01-31T01:01:25;101468.47;;;8.92;54.65
28428;BME280;15662;49.128;8.520;2023-01-31T01:03:55;101467.56;;;8.88;54.76
28428;BME280;15662;49.128;8.520;2023-01-31T01:06:24;101469.31;;;8.89;54.96
28428;BME280;15662;49.128;8.520;2023-01-31T01:08:54;101464.91;;;8.85;54.84
28428;BME280;15662;49.128;8.520;2023-01-31T01:11:31;101479.91;;;8.92;54.70
28428;BME280;15662;49.128;8.520;2023-01-31T01:14:01;101479.00;;;8.90;54.63
28428;BME280;15662;49.128;8.520;2023-01-31T01:16:38;101473.72;;;8.93;54.34
28428;BME280;15662;49.128;8.520;2023-01-31T01:19:11;101472.84;;;8.93;54.52
28428;BME280;15662;49.128;8.520;2023-01-31T01:21:40;101472.84;;;8.90;54.31
28428;BME280;15662;49.128;8.520;2023-01-31T01:24:17;101475.47;;;8.96;54.08
28428;BME280;15662;49.128;8.520;2023-01-31T01:26:45;101480.78;;;8.97;54.57
28428;BME280;15662;49.128;8.520;2023-01-31T01:29:13;101486.06;;;8.97;54.59
28428;BME280;15662;49.128;8.520;2023-01-31T01:31:41;101486.94;;;8.99;54.56
28428;BME280;15662;49.128;8.520;2023-01-31T01:34:15;101478.13;;;8.97;54.08
28428;BME280;15662;49.128;8.520;2023-01-31T01:36:43;101487.81;;;8.98;53.99
28428;BME280;15662;49.128;8.520;2023-01-31T01:39:15;101479.91;;;8.98;54.24
28428;BME280;15662;49.128;8.520;2023-01-31T01:41:44;101478.13;;;8.96;53.71
28428;BME280;15662;49.128;8.520;2023-01-31T01:44:55;101487.84;;;8.97;53.67
28428;BME280;15662;49.128;8.520;2023-01-31T01:47:36;101493.09;;;8.95;54.01
28428;BME280;15662;49.128;8.520;2023-01-31T01:53:11;101488.69;;;8.91;54.01
28428;BME280;15662;49.128;8.520;2023-01-31T01:55:57;101490.47;;;8.89;53.81
28428;BME280;15662;49.128;8.520;2023-01-31T01:58:38;101495.75;;;8.86;53.78
28428;BME280;15662;49.128;8.520;2023-01-31T02:01:09;101493.13;;;8.82;53.90
28428;BME280;15662;49.128;8.520;2023-01-31T02:03:40;101486.97;;;8.78;54.18
28428;BME280;15662;49.128;8.520;2023-01-31T02:06:09;101494.03;;;8.77;53.63
28428;BME280;15662;49.128;8.520;2023-01-31T02:08:38;101496.66;;;8.77;53.74
28428;BME280;15662;49.128;8.520;2023-01-31T02:11:26;101499.31;;;8.73;53.91
28428;BME280;15662;49.128;8.520;2023-01-31T02:14:02;101504.59;;;8.73;53.66
28428;BME280;15662;49.128;8.520;2023-01-31T02:16:34;101502.81;;;8.70;53.88
28428;BME280;15662;49.128;8.520;2023-01-31T02:19:29;101501.94;;;8.70;53.91
28428;BME280;15662;49.128;8.520;2023-01-31T02:22:12;101507.25;;;8.68;53.82
28428;BME280;15662;49.128;8.520;2023-01-31T02:37:15;101520.44;;;8.61;53.48
28428;BME280;15662;49.128;8.520;2023-01-31T02:51:43;101501.06;;;8.60;53.44
28428;BME280;15662;49.128;8.520;2023-01-31T02:54:33;101507.22;;;8.61;53.68
28428;BME280;15662;49.128;8.520;2023-01-31T02:57:22;101516.91;;;8.62;53.62
28428;BME280;15662;49.128;8.520;2023-01-31T02:59:51;101504.59;;;8.62;53.61
28428;BME280;15662;49.128;8.520;2023-01-31T03:02:20;101501.94;;;8.67;53.50
28428;BME280;15662;49.128;8.520;2023-01-31T03:04:48;101511.63;;;8.65;53.75
28428;BME280;15662;49.128;8.520;2023-01-31T03:07:20;101501.06;;;8.65;53.62
28428;BME280;15662;49.128;8.520;2023-01-31T03:10:34;101501.06;;;8.59;53.33
28428;BME280;15662;49.128;8.520;2023-01-31T03:19:13;101502.81;;;8.47;53.13
28428;BME280;15662;49.128;8.520;2023-01-31T03:21:54;101492.22;;;8.41;53.43
28428;BME280;15662;49.128;8.520;2023-01-31T03:24:25;101505.41;;;8.34;53.15
28428;BME280;15662;49.128;8.520;2023-01-31T03:26:59;101506.31;;;8.33;53.23
28428;BME280;15662;49.128;8.520;2023-01-31T03:29:34;101506.28;;;8.30;53.02
28428;BME280;15662;49.128;8.520;2023-01-31T03:32:32;101506.28;;;8.25;52.85
28428;BME280;15662;49.128;8.520;2023-01-31T03:35:01;101504.50;;;8.18;53.41
28428;BME280;15662;49.128;8.520;2023-01-31T03:38:26;101516.81;;;8.16;53.40
28428;BME280;15662;49.128;8.520;2023-01-31T03:41:05;101515.91;;;8.08;53.28
28428;BME280;15662;49.128;8.520;2023-01-31T03:43:58;101519.41;;;8.02;53.04
28428;BME280;15662;49.128;8.520;2023-01-31T03:46:38;101522.03;;;7.97;53.12
28428;BME280;15662;49.128;8.520;2023-01-31T03:49:11;101534.38;;;7.98;53.14
28428;BME280;15662;49.128;8.520;2023-01-31T03:51:49;101536.97;;;7.92;53.33
28428;BME280;15662;49.128;8.520;2023-01-31T03:54:28;101540.50;;;7.93;53.33
28428;BME280;15662;49.128;8.520;2023-01-31T03:57:20;101528.16;;;7.87;53.30
28428;BME280;15662;49.128;8.520;2023-01-31T03:59:51;101530.81;;;7.89;53.23
28428;BME280;15662;49.128;8.520;2023-01-31T04:02:28;101537.88;;;7.88;53.45
28428;BME280;15662;49.128;8.520;2023-01-31T04:05:12;101525.50;;;7.83;53.40
28428;BME280;15662;49.128;8.520;2023-01-31T04:07:45;101530.75;;;7.78;52.90
28428;BME280;15662;49.128;8.520;2023-01-31T04:10:20;101529.88;;;7.78;53.45
28428;BME280;15662;49.128;8.520;2023-01-31T04:12:48;101533.41;;;7.81;53.33
28428;BME280;15662;49.128;8.520;2023-01-31T04:15:16;101541.34;;;7.81;53.42
28428;BME280;15662;49.128;8.520;2023-01-31T04:17:44;101547.47;;;7.77;53.29
28428;BME280;15662;49.128;8.520;2023-01-31T04:20:13;101546.59;;;7.78;53.46
28428;BME280;15662;49.128;8.520;2023-01-31T04:22:40;101534.28;;;7.77;53.77
28428;BME280;15662;49.128;8.520;2023-01-31T04:25:09;101533.41;;;7.76;53.22
28428;BME280;15662;49.128;8.520;2023-01-31T04:27:38;101541.31;;;7.78;53.61
28428;BME280;15662;49.128;8.520;2023-01-31T04:30:07;101531.63;;;7.75;53.78
28428;BME280;15662;49.128;8.520;2023-01-31T04:32:35;101539.59;;;7.79;53.72
28428;BME280;15662;49.128;8.520;2023-01-31T04:35:03;101534.25;;;7.72;53.69
28428;BME280;15662;49.128;8.520;2023-01-31T04:37:31;101533.41;;;7.76;54.09
28428;BME280;15662;49.128;8.520;2023-01-31T04:40:00;101521.06;;;7.72;53.76
28428;BME280;15662;49.128;8.520;2023-01-31T04:42:28;101533.41;;;7.73;53.77
28428;BME280;15662;49.128;8.520;2023-01-31T04:44:56;101528.97;;;7.72;53.92
28428;BME280;15662;49.128;8.520;2023-01-31T04:47:23;101522.78;;;7.67;53.78
28428;BME280;15662;49.128;8.520;2023-01-31T04:49:51;101517.53;;;7.64;53.59
28428;BME280;15662;49.128;8.520;2023-01-31T04:52:19;101543.91;;;7.64;53.89
28428;BME280;15662;49.128;8.520;2023-01-31T04:54:47;101543.00;;;7.62;53.73
28428;BME280;15662;49.128;8.520;2023-01-31T04:57:15;101542.13;;;7.59;54.45
28428;BME280;15662;49.128;8.520;2023-01-31T04:59:43;101544.75;;;7.54;54.23
28428;BME280;15662;49.128;8.520;2023-01-31T05:02:11;101529.72;;;7.48;54.52
28428;BME280;15662;49.128;8.520;2023-01-31T05:04:41;101555.28;;;7.54;54.51
28428;BME280;15662;49.128;8.520;2023-01-31T05:07:09;101540.31;;;7.52;54.47
28428;BME280;15662;49.128;8.520;2023-01-31T05:09:37;101523.59;;;7.51;54.42
28428;BME280;15662;49.128;8.520;2023-01-31T05:12:06;101528.00;;;7.54;54.07
28428;BME280;15662;49.128;8.520;2023-01-31T05:14:34;101511.28;;;7.52;54.78
28428;BME280;15662;49.128;8.520;2023-01-31T05:17:03;101519.22;;;7.50;54.38
28428;BME280;15662;49.128;8.520;2023-01-31T05:19:31;101518.31;;;7.51;54.44
28428;BME280;15662;49.128;8.520;2023-01-31T05:21:59;101514.81;;;7.52;54.38
28428;BME280;15662;49.128;8.520;2023-01-31T05:24:30;101519.19;;;7.47;54.10
28428;BME280;15662;49.128;8.520;2023-01-31T05:27:02;101520.94;;;7.45;54.00
28428;BME280;15662;49.128;8.520;2023-01-31T05:29:32;101526.19;;;7.43;54.25
28428;BME280;15662;49.128;8.520;2023-01-31T05:32:01;101526.19;;;7.43;54.19
28428;BME280;15662;49.128;8.520;2023-01-31T05:34:30;101529.75;;;7.44;54.32
28428;BME280;15662;49.128;8.520;2023-01-31T05:37:00;101521.78;;;7.42;54.33
28428;BME280;15662;49.128;8.520;2023-01-31T05:39:29;101521.78;;;7.41;54.61
28428;BME280;15662;49.128;8.520;2023-01-31T05:41:57;101527.06;;;7.39;54.42
28428;BME280;15662;49.128;8.520;2023-01-31T05:44:25;101528.78;;;7.39;54.31
28428;BME280;15662;49.128;8.520;2023-01-31T05:46:53;101531.44;;;7.37;54.26
28428;BME280;15662;49.128;8.520;2023-01-31T05:49:21;101530.56;;;7.37;54.42
28428;BME280;15662;49.128;8.520;2023-01-31T05:51:48;101527.00;;;7.33;54.17
28428;BME280;15662;49.128;8.520;2023-01-31T05:54:16;101535.84;;;7.35;54.26
28428;BME280;15662;49.128;8.520;2023-01-31T05:56:44;101543.72;;;7.34;54.24
28428;BME280;15662;49.128;8.520;2023-01-31T05:59:12;101542.84;;;7.30;54.47
28428;BME280;15662;49.128;8.520;2023-01-31T06:01:39;101545.44;;;7.27;54.34
28428;BME280;15662;49.128;8.520;2023-01-31T06:04:08;101545.47;;;7.32;54.36
28428;BME280;15662;49.128;8.520;2023-01-31T06:06:36;101540.16;;;7.26;54.33
28428;BME280;15662;49.128;8.520;2023-01-31T06:09:04;101549.84;;;7.28;54.65
28428;BME280;15662;49.128;8.520;2023-01-31T06:11:32;101548.06;;;7.26;54.35
28428;BME280;15662;49.128;8.520;2023-01-31T06:14:00;101548.03;;;7.24;54.04
28428;BME280;15662;49.128;8.520;2023-01-31T06:16:28;101550.66;;;7.18;54.90
28428;BME280;15662;49.128;8.520;2023-01-31T06:18:56;101540.09;;;7.16;54.31
28428;BME280;15662;49.128;8.520;2023-01-31T06:21:24;101549.72;;;7.13;55.12
28428;BME280;15662;49.128;8.520;2023-01-31T06:23:52;101555.88;;;7.12;54.81
28428;BME280;15662;49.128;8.520;2023-01-31T06:26:20;101549.69;;;7.07;54.97
28428;BME280;15662;49.128;8.520;2023-01-31T06:28:48;101558.47;;;7.07;55.10
28428;BME280;15662;49.128;8.520;2023-01-31T06:31:16;101561.09;;;7.04;55.49
28428;BME280;15662;49.128;8.520;2023-01-31T06:33:44;101559.38;;;7.08;55.38
28428;BME280;15662;49.128;8.520;2023-01-31T06:36:15;101553.25;;;7.10;55.59
28428;BME280;15662;49.128;8.520;2023-01-31T06:38:50;101564.66;;;7.14;55.78
28428;BME280;15662;49.128;8.520;2023-01-31T06:41:19;101581.38;;;7.11;55.94
28428;BME280;15662;49.128;8.520;2023-01-31T06:43:47;101580.53;;;7.18;55.93
28428;BME280;15662;49.128;8.520;2023-01-31T06:46:16;101565.63;;;7.20;55.99
28428;BME280;15662;49.128;8.520;2023-01-31T06:48:44;101566.53;;;7.29;56.00
28428;BME280;15662;49.128;8.520;2023-01-31T06:51:12;101585.03;;;7.33;56.09
28428;BME280;15662;49.128;8.520;2023-01-31T06:53:40;101577.13;;;7.32;56.24
28428;BME280;15662;49.128;8.520;2023-01-31T06:56:09;101586.88;;;7.40;56.27
28428;BME280;15662;49.128;8.520;2023-01-31T06:58:36;101595.69;;;7.44;56.07
28428;BME280;15662;49.128;8.520;2023-01-31T07:01:10;101589.53;;;7.48;56.18
28428;BME280;15662;49.128;8.520;2023-01-31T07:03:39;101585.13;;;7.45;56.12
28428;BME280;15662;49.128;8.520;2023-01-31T07:06:08;101587.84;;;7.55;56.31
28428;BME280;15662;49.128;8.520;2023-01-31T07:08:37;101581.72;;;7.59;56.68
28428;BME280;15662;49.128;8.520;2023-01-31T07:11:05;101566.78;;;7.64;55.96
28428;BME280;15662;49.128;8.520;2023-01-31T07:13:33;101570.34;;;7.73;55.86
28428;BME280;15662;49.128;8.520;2023-01-31T07:16:01;101557.19;;;7.80;55.91
28428;BME280;15662;49.128;8.520;2023-01-31T07:18:29;101566.88;;;7.85;56.09
28428;BME280;15662;49.128;8.520;2023-01-31T07:20:58;101567.75;;;7.87;56.12
28428;BME280;15662;49.128;8.520;2023-01-31T07:23:26;101559.84;;;7.87;56.26
28428;BME280;15662;49.128;8.520;2023-01-31T07:25:54;101565.16;;;7.93;55.69
28428;BME280;15662;49.128;8.520;2023-01-31T07:28:21;101565.19;;;8.01;56.10
28428;BME280;15662;49.128;8.520;2023-01-31T07:30:49;101576.63;;;8.01;56.16
28428;BME280;15662;49.128;8.520;2023-01-31T07:33:18;101589.84;;;8.06;55.74
28428;BME280;15662;49.128;8.520;2023-01-31T07:35:46;101581.00;;;8.02;56.16
28428;BME280;15662;49.128;8.520;2023-01-31T07:38:14;101599.53;;;8.07;56.16
28428;BME280;15662;49.128;8.520;2023-01-31T07:40:41;101589.00;;;8.09;56.06
28428;BME280;15662;49.128;8.520;2023-01-31T07:43:09;101585.47;;;8.08;56.16
28428;BME280;15662;49.128;8.520;2023-01-31T07:45:38;101588.97;;;8.12;55.85
28428;BME280;15662;49.128;8.520;2023-01-31T07:48:06;101592.53;;;8.17;56.10
28428;BME280;15662;49.128;8.520;2023-01-31T07:50:34;101599.59;;;8.21;55.86
28428;BME280;15662;49.128;8.520;2023-01-31T07:53:02;101596.94;;;8.22;55.88
28428;BME280;15662;49.128;8.520;2023-01-31T07:55:30;101595.19;;;8.24;56.05
28428;BME280;15662;49.128;8.520;2023-01-31T07:57:58;101596.06;;;8.26;55.92
28428;BME280;15662;49.128;8.520;2023-01-31T08:00:26;101595.19;;;8.26;55.62
28428;BME280;15662;49.128;8.520;2023-01-31T08:03:24;101576.72;;;8.26;55.19
28428;BME280;15662;49.128;8.520;2023-01-31T08:06:09;101574.94;;;8.23;55.50
28428;BME280;15662;49.128;8.520;2023-01-31T08:08:39;101581.09;;;8.21;55.13
28428;BME280;15662;49.128;8.520;2023-01-31T08:11:07;101596.09;;;8.25;55.32
28428;BME280;15662;49.128;8.520;2023-01-31T08:13:37;101595.19;;;8.26;55.00
28428;BME280;15662;49.128;8.520;2023-01-31T08:16:08;101583.75;;;8.24;54.95
28428;BME280;15662;49.128;8.520;2023-01-31T08:18:37;101591.66;;;8.27;54.88
28428;BME280;15662;49.128;8.520;2023-01-31T08:21:06;101585.50;;;8.26;55.00
28428;BME280;15662;49.128;8.520;2023-01-31T08:23:35;101585.53;;;8.28;55.32
28428;BME280;15662;49.128;8.520;2023-01-31T08:26:13;101582.00;;;8.29;54.89
28428;BME280;15662;49.128;8.520;2023-01-31T08:28:44;101591.69;;;8.28;54.92
28428;BME280;15662;49.128;8.520;2023-01-31T08:31:21;101581.09;;;8.25;54.67
28428;BME280;15662;49.128;8.520;2023-01-31T08:33:49;101581.09;;;8.21;54.69
28428;BME280;15662;49.128;8.520;2023-01-31T08:36:22;101580.19;;;8.17;55.07
28428;BME280;15662;49.128;8.520;2023-01-31T08:38:53;101585.50;;;8.25;55.12
28428;BME280;15662;49.128;8.520;2023-01-31T08:41:24;101601.38;;;8.28;55.26
28428;BME280;15662;49.128;8.520;2023-01-31T08:43:52;101582.88;;;8.30;55.33
28428;BME280;15662;49.128;8.520;2023-01-31T08:46:27;101604.06;;;8.42;55.54
28428;BME280;15662;49.128;8.520;2023-01-31T08:48:59;101596.19;;;8.48;55.49
28428;BME280;15662;49.128;8.520;2023-01-31T08:51:47;101595.31;;;8.50;55.64
28428;BME280;15662;49.128;8.520;2023-01-31T08:54:15;101597.97;;;8.63;55.72
28428;BME280;15662;49.128;8.520;2023-01-31T08:56:43;101586.53;;;8.68;55.33
28428;BME280;15662;49.128;8.520;2023-01-31T08:59:30;101572.44;;;8.72;55.39
28428;BME280;15662;49.128;8.520;2023-01-31T09:01:59;101581.25;;;8.88;55.61
28428;BME280;15662;49.128;8.520;2023-01-31T09:04:27;101576.88;;;8.92;55.28
28428;BME280;15662;49.128;8.520;2023-01-31T09:06:55;101575.97;;;8.97;55.27
28428;BME280;15662;49.128;8.520;2023-01-31T09:09:23;101581.25;;;8.99;55.25
28428;BME280;15662;49.128;8.520;2023-01-31T09:11:52;101575.97;;;9.00;55.17
28428;BME280;15662;49.128;8.520;2023-01-31T09:14:20;101584.78;;;9.01;55.02
28428;BME280;15662;49.128;8.520;2023-01-31T09:16:48;101594.50;;;9.02;55.35
28428;BME280;15662;49.128;8.520;2023-01-31T09:19:16;101587.41;;;8.96;54.85
28428;BME280;15662;49.128;8.520;2023-01-31T09:21:44;101592.72;;;8.95;55.21
28428;BME280;15662;49.128;8.520;2023-01-31T09:24:11;101586.53;;;8.90;55.21
28428;BME280;15662;49.128;8.520;2023-01-31T09:26:39;101592.72;;;8.87;55.25
28428;BME280;15662;49.128;8.520;2023-01-31T09:29:07;101576.00;;;8.87;54.80
28428;BME280;15662;49.128;8.520;2023-01-31T09:31:35;101589.19;;;8.91;54.88
28428;BME280;15662;49.128;8.520;2023-01-31T09:34:02;101583.03;;;8.98;54.81
28428;BME280;15662;49.128;8.520;2023-01-31T09:36:30;101589.19;;;8.99;54.78
28428;BME280;15662;49.128;8.520;2023-01-31T09:38:58;101599.75;;;9.00;54.72
28428;BME280;15662;49.128;8.520;2023-01-31T09:41:35;101588.31;;;8.98;54.68
28428;BME280;15662;49.128;8.520;2023-01-31T09:44:28;101590.06;;;8.96;54.47
28428;BME280;15662;49.128;8.520;2023-01-31T09:47:17;101605.97;;;8.98;54.61
28428;BME280;15662;49.128;8.520;2023-01-31T09:52:41;101597.13;;;8.99;54.95
28428;BME280;15662;49.128;8.520;2023-01-31T09:55:22;101591.88;;;9.07;54.45
28428;BME280;15662;49.128;8.520;2023-01-31T10:00:46;101590.06;;;9.01;54.46
28428;BME280;15662;49.128;8.520;2023-01-31T10:03:27;101581.28;;;9.02;54.43
28428;BME280;15662;49.128;8.520;2023-01-31T10:06:20;101575.09;;;9.04;54.35
28428;BME280;15662;49.128;8.520;2023-01-31T10:11:48;101574.22;;;9.12;54.66
28428;BME280;15662;49.128;8.520;2023-01-31T10:17:11;101571.53;;;9.30;54.27
28428;BME280;15662;49.128;8.520;2023-01-31T10:23:06;101582.09;;;9.45;54.19
28428;BME280;15662;49.128;8.520;2023-01-31T10:25:59;101576.81;;;9.47;54.07
28428;BME280;15662;49.128;8.520;2023-01-31T10:29:05;101578.56;;;9.48;53.88
28428;BME280;15662;49.128;8.520;2023-01-31T10:32:05;101581.22;;;9.49;53.86
28428;BME280;15662;49.128;8.520;2023-01-31T10:34:51;101584.75;;;9.45;54.09
28428;BME280;15662;49.128;8.520;2023-01-31T10:37:51;101583.00;;;9.47;54.09
28428;BME280;15662;49.128;8.520;2023-01-31T10:43:09;101557.34;;;9.60;54.02
28428;BME280;15662;49.128;8.520;2023-01-31T10:45:40;101561.75;;;9.64;54.15
28428;BME280;15662;49.128;8.520;2023-01-31T10:48:22;101559.97;;;9.74;53.59
28428;BME280;15662;49.128;8.520;2023-01-31T10:51:37;101553.78;;;9.79;53.63
28428;BME280;15662;49.128;8.520;2023-01-31T10:57:09;101532.59;;;9.86;53.73
28428;BME280;15662;49.128;8.520;2023-01-31T10:59:42;101531.63;;;9.97;53.50
28428;BME280;15662;49.128;8.520;2023-01-31T11:02:19;101518.38;;;10.00;52.98
28428;BME280;15662;49.128;8.520;2023-01-31T11:04:51;101510.41;;;10.06;53.42
28428;BME280;15662;49.128;8.520;2023-01-31T11:07:21;101517.44;;;10.11;53.17
28428;BME280;15662;49.128;8.520;2023-01-31T11:09:52;101514.75;;;10.17;53.06
28428;BME280;15662;49.128;8.520;2023-01-31T11:12:39;101508.56;;;10.21;52.80
28428;BME280;15662;49.128;8.520;2023-01-31T11:15:17;101512.06;;;10.30;53.11
28428;BME280;15662;49.128;8.520;2023-01-31T11:17:45;101514.69;;;10.33;52.81
28428;BME280;15662;49.128;8.520;2023-01-31T11:20:44;101507.59;;;10.37;52.76
28428;BME280;15662;49.128;8.520;2023-01-31T11:23:24;101508.44;;;10.45;52.55
28428;BME280;15662;49.128;8.520;2023-01-31T11:25:54;101515.53;;;10.40;52.15
28428;BME280;15662;49.128;8.520;2023-01-31T11:28:39;101489.06;;;10.36;51.98
28428;BME280;15662;49.128;8.520;2023-01-31T11:31:20;101507.59;;;10.34;51.88
28428;BME280;15662;49.128;8.520;2023-01-31T11:33:58;101512.06;;;10.30;51.93
28428;BME280;15662;49.128;8.520;2023-01-31T11:36:41;101499.69;;;10.28;51.79
28428;BME280;15662;49.128;8.520;2023-01-31T11:39:33;101491.72;;;10.32;51.69
28428;BME280;15662;49.128;8.520;2023-01-31T11:42:15;101470.53;;;10.29;52.05
28428;BME280;15662;49.128;8.520;2023-01-31T11:45:01;101473.19;;;10.28;51.47
28428;BME280;15662;49.128;8.520;2023-01-31T11:48:36;101459.97;;;10.26;51.65
28428;BME280;15662;49.128;8.520;2023-01-31T11:50:41;101470.53;;;10.28;51.84
28428;BME280;15662;49.128;8.520;2023-01-31T11:53:37;101465.22;;;10.29;51.09
28428;BME280;15662;49.128;8.520;2023-01-31T11:56:20;101452.91;;;10.24;50.99
28428;BME280;15662;49.128;8.520;2023-01-31T11:58:53;101442.28;;;10.22;51.41
28428;BME280;15662;49.128;8.520;2023-01-31T12:01:24;101437.88;;;10.24;51.26
28428;BME280;15662;49.128;8.520;2023-01-31T12:03:58;101432.53;;;10.29;51.36
28428;BME280;15662;49.128;8.520;2023-01-31T12:06:40;101444.03;;;10.31;51.02
28428;BME280;15662;49.128;8.520;2023-01-31T12:09:24;101444.91;;;10.31;50.89
28428;BME280;15662;49.128;8.520;2023-01-31T12:12:01;101442.28;;;10.28;51.03
28428;BME280;15662;49.128;8.520;2023-01-31T12:14:40;101441.41;;;10.26;50.97
28428;BME280;15662;49.128;8.520;2023-01-31T12:17:15;101429.91;;;10.29;50.71
28428;BME280;15662;49.128;8.520;2023-01-31T12:20:38;101417.53;;;10.29;51.12
28428;BME280;15662;49.128;8.520;2023-01-31T12:53:12;101342.44;;;10.32;50.66
28428;BME280;15662;49.128;8.520;2023-01-31T13:02:11;101352.16;;;10.35;49.99
28428;BME280;15662;49.128;8.520;2023-01-31T13:07:34;101348.59;;;10.36;50.06
28428;BME280;15662;49.128;8.520;2023-01-31T13:10:27;101358.31;;;10.35;50.05
28428;BME280;15662;49.128;8.520;2023-01-31T13:12:57;101353.94;;;10.29;50.19
28428;BME280;15662;49.128;8.520;2023-01-31T13:15:48;101350.34;;;10.33;50.01
28428;BME280;15662;49.128;8.520;2023-01-31T13:18:18;101345.19;;;10.17;50.37
28428;BME280;15662;49.128;8.520;2023-01-31T13:21:05;101335.38;;;10.31;50.38
28428;BME280;15662;49.128;8.520;2023-01-31T13:23:37;101330.91;;;10.36;50.27
28428;BME280;15662;49.128;8.520;2023-01-31T13:26:24;101323.81;;;10.38;49.94
28428;BME280;15662;49.128;8.520;2023-01-31T13:29:06;101321.16;;;10.38;50.10
28428;BME280;15662;49.128;8.520;2023-01-31T13:31:53;101320.38;;;10.30;49.99
28428;BME280;15662;49.128;8.520;2023-01-31T13:34:41;101335.41;;;10.28;49.83
28428;BME280;15662;49.128;8.520;2023-01-31T13:37:19;101330.16;;;10.17;49.91
28428;BME280;15662;49.128;8.520;2023-01-31T13:40:17;101312.50;;;10.15;50.09
28428;BME280;15662;49.128;8.520;2023-01-31T13:42:46;101320.56;;;10.05;50.23
28428;BME280;15662;49.128;8.520;2023-01-31T13:45:26;101290.50;;;10.11;50.14
28428;BME280;15662;49.128;8.520;2023-01-31T13:48:04;101287.84;;;10.08;50.15
28428;BME280;15662;49.128;8.520;2023-01-31T13:50:45;101279.97;;;10.05;50.10
28428;BME280;15662;49.128;8.520;2023-01-31T13:53:25;101286.13;;;10.05;50.23
28428;BME280;15662;49.128;8.520;2023-01-31T13:55:56;101282.53;;;10.09;50.29
28428;BME280;15662;49.128;8.520;2023-01-31T13:58:31;101270.22;;;10.07;50.16
28428;BME280;15662;49.128;8.520;2023-01-31T14:01:14;101256.94;;;10.12;50.24
28428;BME280;15662;49.128;8.520;2023-01-31T14:14:56;101240.94;;;10.24;50.42
28428;BME280;15662;49.128;8.520;2023-01-31T14:23:29;101251.56;;;10.18;50.10
28428;BME280;15662;49.128;8.520;2023-01-31T14:25:57;101255.16;;;10.12;50.56
28428;BME280;15662;49.128;8.520;2023-01-31T14:28:26;101265.72;;;10.15;50.27
28428;BME280;15662;49.128;8.520;2023-01-31T14:30:54;101261.31;;;10.14;50.29
28428;BME280;15662;49.128;8.520;2023-01-31T14:33:24;101264.88;;;10.12;50.53
28428;BME280;15662;49.128;8.520;2023-01-31T14:51:14;101271.00;;;10.20;50.60
28428;BME280;15662;49.128;8.520;2023-01-31T15:05:08;101268.28;;;10.23;50.73
28428;BME280;15662;49.128;8.520;2023-01-31T15:11:03;101282.41;;;10.28;50.71
28428;BME280;15662;49.128;8.520;2023-01-31T15:13:52;101278.00;;;10.27;50.81
28428;BME280;15662;49.128;8.520;2023-01-31T15:16:30;101277.09;;;10.31;50.79
28428;BME280;15662;49.128;8.520;2023-01-31T15:21:47;101281.47;;;10.33;50.77
28428;BME280;15662;49.128;8.520;2023-01-31T15:24:38;101271.81;;;10.28;50.74
28428;BME280;15662;49.128;8.520;2023-01-31T15:27:22;101271.78;;;10.29;50.70
28428;BME280;15662;49.128;8.520;2023-01-31T15:32:59;101288.50;;;10.36;50.71
28428;BME280;15662;49.128;8.520;2023-01-31T15:36:00;101293.78;;;10.38;50.80
28428;BME280;15662;49.128;8.520;2023-01-31T15:38:52;101275.34;;;10.30;50.73
28428;BME280;15662;49.128;8.520;2023-01-31T15:41:35;101275.28;;;10.33;50.97
28428;BME280;15662;49.128;8.520;2023-01-31T15:44:30;101290.25;;;10.39;50.74
28428;BME280;15662;49.128;8.520;2023-01-31T15:46:58;101286.72;;;10.38;50.89
28428;BME280;15662;49.128;8.520;2023-01-31T15:49:31;101287.56;;;10.42;50.73
28428;BME280;15662;49.128;8.520;2023-01-31T15:54:34;101297.31;;;10.41;50.72
28428;BME280;15662;49.128;8.520;2023-01-31T15:57:03;101283.13;;;10.45;50.67
28428;BME280;15662;49.128;8.520;2023-01-31T15:59:33;101280.44;;;10.47;50.75
28428;BME280;15662;49.128;8.520;2023-01-31T16:02:03;101279.56;;;10.49;50.48
28428;BME280;15662;49.128;8.520;2023-01-31T16:04:31;101290.09;;;10.52;50.51